sensor_id;sensor_type;location;lat;lon;timestamp;P1;durP1;ratioP1;P2;durP2;ratioP2
42726;SDS011;28372;56.832;60.658;2023-11-19T00:00:21;3.47;;;1.60;;
42726;SDS011;28372;56.832;60.658;2023-11-19T00:02:52;3.33;;;1.55;;
42726;SDS011;28372;56.832;60.658;2023-11-19T00:05:25;2.67;;;1.52;;
42726;SDS011;28372;56.832;60.658;2023-11-19T00:07:54;3.45;;;1.45;;
42726;SDS011;28372;56.832;60.658;2023-11-19T00:10:32;2.80;;;1.45;;
42726;SDS011;28372;56.832;60.658;2023-11-19T00:13:08;3.33;;;1.23;;
42726;SDS011;28372;56.832;60.658;2023-11-19T00:15:40;3.05;;;1.20;;
42726;SDS011;28372;56.832;60.658;2023-11-19T00:18:08;3.13;;;1.23;;
42726;SDS011;28372;56.832;60.658;2023-11-19T00:20:36;3.10;;;1.13;;
42726;SDS011;28372;56.832;60.658;2023-11-19T00:23:05;2.83;;;1.15;;
42726;SDS011;28372;56.832;60.658;2023-11-19T00:25:32;2.33;;;1.20;;
42726;SDS011;28372;56.832;60.658;2023-11-19T00:28:00;2.17;;;1.00;;
42726;SDS011;28372;56.832;60.658;2023-11-19T00:30:28;3.67;;;1.00;;
42726;SDS011;28372;56.832;60.658;2023-11-19T00:32:59;2.42;;;1.10;;
42726;SDS011;28372;56.832;60.658;2023-11-19T00:35:29;2.63;;;0.90;;
42726;SDS011;28372;56.832;60.658;2023-11-19T00:37:58;1.85;;;0.90;;
42726;SDS011;28372;56.832;60.658;2023-11-19T00:40:31;2.28;;;1.10;;
42726;SDS011;28372;56.832;60.658;2023-11-19T00:42:58;1.33;;;0.70;;
42726;SDS011;28372;56.832;60.658;2023-11-19T00:45:30;1.20;;;0.80;;
42726;SDS011;28372;56.832;60.658;2023-11-19T00:47:59;1.95;;;1.08;;
42726;SDS011;28372;56.832;60.658;2023-11-19T00:50:33;3.78;;;0.98;;
42726;SDS011;28372;56.832;60.658;2023-11-19T00:53:04;1.50;;;0.80;;
42726;SDS011;28372;56.832;60.658;2023-11-19T00:55:35;1.50;;;0.80;;
42726;SDS011;28372;56.832;60.658;2023-11-19T00:58:13;2.42;;;0.82;;
42726;SDS011;28372;56.832;60.658;2023-11-19T01:00:40;2.50;;;1.00;;
42726;SDS011;28372;56.832;60.658;2023-11-19T01:03:08;2.47;;;0.90;;
42726;SDS011;28372;56.832;60.658;2023-11-19T01:05:36;3.65;;;0.93;;
42726;SDS011;28372;56.832;60.658;2023-11-19T01:08:03;3.28;;;0.93;;
42726;SDS011;28372;56.832;60.658;2023-11-19T01:10:32;1.45;;;0.93;;
42726;SDS011;28372;56.832;60.658;2023-11-19T01:13:01;2.40;;;0.90;;
42726;SDS011;28372;56.832;60.658;2023-11-19T01:15:30;5.07;;;1.00;;
42726;SDS011;28372;56.832;60.658;2023-11-19T01:17:58;4.60;;;1.20;;
42726;SDS011;28372;56.832;60.658;2023-11-19T01:20:26;2.03;;;1.17;;
42726;SDS011;28372;56.832;60.658;2023-11-19T01:22:54;2.65;;;1.20;;
42726;SDS011;28372;56.832;60.658;2023-11-19T01:25:23;3.35;;;0.98;;
42726;SDS011;28372;56.832;60.658;2023-11-19T01:27:51;2.33;;;0.80;;
42726;SDS011;28372;56.832;60.658;2023-11-19T01:30:18;2.95;;;1.00;;
42726;SDS011;28372;56.832;60.658;2023-11-19T01:32:49;3.13;;;1.20;;
42726;SDS011;28372;56.832;60.658;2023-11-19T01:35:17;4.70;;;1.15;;
42726;SDS011;28372;56.832;60.658;2023-11-19T01:37:44;2.40;;;1.05;;
42726;SDS011;28372;56.832;60.658;2023-11-19T01:40:12;2.80;;;1.10;;
42726;SDS011;28372;56.832;60.658;2023-11-19T01:42:40;2.80;;;1.30;;
42726;SDS011;28372;56.832;60.658;2023-11-19T01:45:08;3.75;;;1.63;;
42726;SDS011;28372;56.832;60.658;2023-11-19T01:47:37;3.05;;;1.15;;
42726;SDS011;28372;56.832;60.658;2023-11-19T01:50:06;2.97;;;1.23;;
42726;SDS011;28372;56.832;60.658;2023-11-19T01:52:35;4.60;;;1.30;;
42726;SDS011;28372;56.832;60.658;2023-11-19T01:55:05;2.80;;;1.13;;
42726;SDS011;28372;56.832;60.658;2023-11-19T01:57:36;3.55;;;1.20;;
42726;SDS011;28372;56.832;60.658;2023-11-19T02:00:07;3.10;;;1.58;;
42726;SDS011;28372;56.832;60.658;2023-11-19T02:05:09;2.83;;;1.10;;
42726;SDS011;28372;56.832;60.658;2023-11-19T02:07:38;1.92;;;1.00;;
42726;SDS011;28372;56.832;60.658;2023-11-19T02:10:06;2.15;;;0.90;;
42726;SDS011;28372;56.832;60.658;2023-11-19T02:12:40;3.25;;;1.33;;
42726;SDS011;28372;56.832;60.658;2023-11-19T02:15:11;6.13;;;1.42;;
42726;SDS011;28372;56.832;60.658;2023-11-19T02:17:39;3.53;;;1.40;;
42726;SDS011;28372;56.832;60.658;2023-11-19T02:20:08;2.25;;;1.10;;
42726;SDS011;28372;56.832;60.658;2023-11-19T02:22:36;2.83;;;1.25;;
42726;SDS011;28372;56.832;60.658;2023-11-19T02:25:04;3.60;;;1.00;;
42726;SDS011;28372;56.832;60.658;2023-11-19T02:27:54;4.40;;;0.90;;
42726;SDS011;28372;56.832;60.658;2023-11-19T02:30:26;2.65;;;0.80;;
42726;SDS011;28372;56.832;60.658;2023-11-19T02:32:55;1.92;;;0.93;;
42726;SDS011;28372;56.832;60.658;2023-11-19T02:35:25;2.50;;;1.10;;
42726;SDS011;28372;56.832;60.658;2023-11-19T02:37:56;3.38;;;1.00;;
42726;SDS011;28372;56.832;60.658;2023-11-19T02:40:26;4.03;;;1.33;;
42726;SDS011;28372;56.832;60.658;2023-11-19T02:42:54;2.78;;;1.40;;
42726;SDS011;28372;56.832;60.658;2023-11-19T02:45:24;2.70;;;1.33;;
42726;SDS011;28372;56.832;60.658;2023-11-19T02:47:54;4.53;;;1.40;;
42726;SDS011;28372;56.832;60.658;2023-11-19T02:50:24;4.55;;;1.25;;
42726;SDS011;28372;56.832;60.658;2023-11-19T02:52:53;2.75;;;1.20;;
42726;SDS011;28372;56.832;60.658;2023-11-19T02:55:24;5.18;;;1.42;;
42726;SDS011;28372;56.832;60.658;2023-11-19T02:57:52;5.30;;;1.33;;
42726;SDS011;28372;56.832;60.658;2023-11-19T03:00:21;2.70;;;1.30;;
42726;SDS011;28372;56.832;60.658;2023-11-19T03:02:51;3.92;;;1.17;;
42726;SDS011;28372;56.832;60.658;2023-11-19T03:05:48;2.42;;;1.27;;
42726;SDS011;28372;56.832;60.658;2023-11-19T03:08:16;3.10;;;1.20;;
42726;SDS011;28372;56.832;60.658;2023-11-19T03:10:47;2.05;;;1.08;;
42726;SDS011;28372;56.832;60.658;2023-11-19T03:13:15;2.22;;;0.98;;
42726;SDS011;28372;56.832;60.658;2023-11-19T03:15:44;2.75;;;0.95;;
42726;SDS011;28372;56.832;60.658;2023-11-19T03:18:12;3.17;;;1.10;;
42726;SDS011;28372;56.832;60.658;2023-11-19T03:20:40;1.80;;;1.02;;
42726;SDS011;28372;56.832;60.658;2023-11-19T03:23:08;1.83;;;0.90;;
42726;SDS011;28372;56.832;60.658;2023-11-19T03:25:35;1.90;;;1.00;;
42726;SDS011;28372;56.832;60.658;2023-11-19T03:28:04;5.20;;;1.25;;
42726;SDS011;28372;56.832;60.658;2023-11-19T03:30:32;3.17;;;1.13;;
42726;SDS011;28372;56.832;60.658;2023-11-19T03:33:01;2.47;;;1.10;;
42726;SDS011;28372;56.832;60.658;2023-11-19T03:35:29;3.83;;;1.30;;
42726;SDS011;28372;56.832;60.658;2023-11-19T03:37:57;2.78;;;1.30;;
42726;SDS011;28372;56.832;60.658;2023-11-19T03:40:25;3.28;;;1.33;;
42726;SDS011;28372;56.832;60.658;2023-11-19T03:42:53;2.75;;;1.33;;
42726;SDS011;28372;56.832;60.658;2023-11-19T03:45:20;2.38;;;1.20;;
42726;SDS011;28372;56.832;60.658;2023-11-19T03:47:48;2.45;;;1.05;;
42726;SDS011;28372;56.832;60.658;2023-11-19T03:50:17;3.70;;;1.35;;
42726;SDS011;28372;56.832;60.658;2023-11-19T03:52:47;3.03;;;1.13;;
42726;SDS011;28372;56.832;60.658;2023-11-19T03:55:15;2.47;;;1.20;;
42726;SDS011;28372;56.832;60.658;2023-11-19T03:57:44;3.08;;;1.30;;
42726;SDS011;28372;56.832;60.658;2023-11-19T04:00:12;1.67;;;0.90;;
42726;SDS011;28372;56.832;60.658;2023-11-19T04:02:41;2.60;;;1.15;;
42726;SDS011;28372;56.832;60.658;2023-11-19T04:05:09;2.97;;;1.17;;
42726;SDS011;28372;56.832;60.658;2023-11-19T04:07:37;3.50;;;1.13;;
42726;SDS011;28372;56.832;60.658;2023-11-19T04:10:05;3.22;;;1.10;;
42726;SDS011;28372;56.832;60.658;2023-11-19T04:12:33;2.42;;;0.90;;
42726;SDS011;28372;56.832;60.658;2023-11-19T04:15:00;2.90;;;1.08;;
42726;SDS011;28372;56.832;60.658;2023-11-19T04:17:30;1.23;;;0.73;;
42726;SDS011;28372;56.832;60.658;2023-11-19T04:19:58;1.67;;;0.95;;
42726;SDS011;28372;56.832;60.658;2023-11-19T04:22:29;2.42;;;1.33;;
42726;SDS011;28372;56.832;60.658;2023-11-19T04:24:57;3.40;;;1.65;;
42726;SDS011;28372;56.832;60.658;2023-11-19T04:27:25;1.88;;;1.20;;
42726;SDS011;28372;56.832;60.658;2023-11-19T04:29:55;3.80;;;1.20;;
42726;SDS011;28372;56.832;60.658;2023-11-19T04:32:23;2.72;;;1.20;;
42726;SDS011;28372;56.832;60.658;2023-11-19T04:34:52;2.80;;;1.30;;
42726;SDS011;28372;56.832;60.658;2023-11-19T04:37:20;3.55;;;1.42;;
42726;SDS011;28372;56.832;60.658;2023-11-19T04:39:48;2.58;;;1.20;;
42726;SDS011;28372;56.832;60.658;2023-11-19T04:42:22;4.93;;;1.10;;
42726;SDS011;28372;56.832;60.658;2023-11-19T04:44:58;1.58;;;1.00;;
42726;SDS011;28372;56.832;60.658;2023-11-19T04:47:30;2.88;;;1.00;;
42726;SDS011;28372;56.832;60.658;2023-11-19T04:50:13;2.70;;;1.00;;
42726;SDS011;28372;56.832;60.658;2023-11-19T04:52:48;4.15;;;1.08;;
42726;SDS011;28372;56.832;60.658;2023-11-19T04:55:41;2.28;;;1.10;;
42726;SDS011;28372;56.832;60.658;2023-11-19T04:58:14;2.25;;;1.05;;
42726;SDS011;28372;56.832;60.658;2023-11-19T05:00:43;2.40;;;1.15;;
42726;SDS011;28372;56.832;60.658;2023-11-19T05:03:18;3.17;;;1.15;;
42726;SDS011;28372;56.832;60.658;2023-11-19T05:05:50;2.70;;;1.10;;
42726;SDS011;28372;56.832;60.658;2023-11-19T05:08:38;5.03;;;1.30;;
42726;SDS011;28372;56.832;60.658;2023-11-19T05:11:06;3.88;;;1.00;;
42726;SDS011;28372;56.832;60.658;2023-11-19T05:13:33;1.98;;;0.70;;
42726;SDS011;28372;56.832;60.658;2023-11-19T05:16:01;3.15;;;1.00;;
42726;SDS011;28372;56.832;60.658;2023-11-19T05:18:29;3.40;;;0.93;;
42726;SDS011;28372;56.832;60.658;2023-11-19T05:21:00;4.32;;;1.38;;
42726;SDS011;28372;56.832;60.658;2023-11-19T05:23:38;4.43;;;1.20;;
42726;SDS011;28372;56.832;60.658;2023-11-19T05:26:06;1.88;;;1.00;;
42726;SDS011;28372;56.832;60.658;2023-11-19T05:28:37;1.70;;;0.90;;
42726;SDS011;28372;56.832;60.658;2023-11-19T05:31:06;5.93;;;0.88;;
42726;SDS011;28372;56.832;60.658;2023-11-19T05:33:34;1.70;;;0.90;;
42726;SDS011;28372;56.832;60.658;2023-11-19T05:36:03;2.17;;;0.77;;
42726;SDS011;28372;56.832;60.658;2023-11-19T05:38:31;1.45;;;0.85;;
42726;SDS011;28372;56.832;60.658;2023-11-19T05:40:58;2.97;;;1.00;;
42726;SDS011;28372;56.832;60.658;2023-11-19T05:43:26;1.95;;;0.90;;
42726;SDS011;28372;56.832;60.658;2023-11-19T05:45:54;1.42;;;0.80;;
42726;SDS011;28372;56.832;60.658;2023-11-19T05:48:22;3.60;;;0.95;;
42726;SDS011;28372;56.832;60.658;2023-11-19T05:50:49;6.10;;;1.00;;
42726;SDS011;28372;56.832;60.658;2023-11-19T05:53:17;1.65;;;0.80;;
42726;SDS011;28372;56.832;60.658;2023-11-19T05:55:45;2.75;;;1.00;;
42726;SDS011;28372;56.832;60.658;2023-11-19T05:58:25;4.30;;;0.90;;
42726;SDS011;28372;56.832;60.658;2023-11-19T06:00:56;1.20;;;0.68;;
42726;SDS011;28372;56.832;60.658;2023-11-19T06:03:24;4.68;;;1.00;;
42726;SDS011;28372;56.832;60.658;2023-11-19T06:05:52;2.63;;;0.80;;
42726;SDS011;28372;56.832;60.658;2023-11-19T06:08:21;5.68;;;1.08;;
42726;SDS011;28372;56.832;60.658;2023-11-19T06:10:48;2.60;;;0.93;;
42726;SDS011;28372;56.832;60.658;2023-11-19T06:13:18;3.15;;;1.05;;
42726;SDS011;28372;56.832;60.658;2023-11-19T06:15:50;4.78;;;1.40;;
42726;SDS011;28372;56.832;60.658;2023-11-19T06:18:18;5.38;;;1.20;;
42726;SDS011;28372;56.832;60.658;2023-11-19T06:20:47;1.75;;;0.82;;
42726;SDS011;28372;56.832;60.658;2023-11-19T06:23:16;1.75;;;0.80;;
42726;SDS011;28372;56.832;60.658;2023-11-19T06:25:45;3.75;;;1.10;;
42726;SDS011;28372;56.832;60.658;2023-11-19T06:28:12;3.33;;;1.30;;
42726;SDS011;28372;56.832;60.658;2023-11-19T06:30:40;4.22;;;1.40;;
42726;SDS011;28372;56.832;60.658;2023-11-19T06:33:09;5.60;;;1.73;;
42726;SDS011;28372;56.832;60.658;2023-11-19T06:35:40;3.63;;;1.38;;
42726;SDS011;28372;56.832;60.658;2023-11-19T06:38:08;3.60;;;1.30;;
42726;SDS011;28372;56.832;60.658;2023-11-19T06:40:35;3.33;;;1.23;;
42726;SDS011;28372;56.832;60.658;2023-11-19T06:43:03;4.15;;;1.33;;
42726;SDS011;28372;56.832;60.658;2023-11-19T06:45:31;5.50;;;1.23;;
42726;SDS011;28372;56.832;60.658;2023-11-19T06:48:02;3.85;;;1.30;;
42726;SDS011;28372;56.832;60.658;2023-11-19T06:50:31;2.72;;;1.20;;
42726;SDS011;28372;56.832;60.658;2023-11-19T06:53:00;5.10;;;1.63;;
42726;SDS011;28372;56.832;60.658;2023-11-19T06:55:27;4.93;;;1.45;;
42726;SDS011;28372;56.832;60.658;2023-11-19T06:57:55;3.67;;;1.38;;
42726;SDS011;28372;56.832;60.658;2023-11-19T07:00:23;3.47;;;1.10;;
42726;SDS011;28372;56.832;60.658;2023-11-19T07:02:51;3.80;;;1.20;;
42726;SDS011;28372;56.832;60.658;2023-11-19T07:05:18;5.07;;;1.80;;
42726;SDS011;28372;56.832;60.658;2023-11-19T07:07:46;5.00;;;1.60;;
42726;SDS011;28372;56.832;60.658;2023-11-19T07:10:14;5.30;;;1.30;;
42726;SDS011;28372;56.832;60.658;2023-11-19T07:12:42;3.63;;;1.50;;
42726;SDS011;28372;56.832;60.658;2023-11-19T07:15:37;4.28;;;1.80;;
42726;SDS011;28372;56.832;60.658;2023-11-19T07:18:04;4.38;;;1.50;;
42726;SDS011;28372;56.832;60.658;2023-11-19T07:20:55;4.43;;;1.60;;
42726;SDS011;28372;56.832;60.658;2023-11-19T07:23:22;5.18;;;1.30;;
42726;SDS011;28372;56.832;60.658;2023-11-19T07:25:50;4.30;;;1.30;;
42726;SDS011;28372;56.832;60.658;2023-11-19T07:28:20;3.67;;;1.70;;
42726;SDS011;28372;56.832;60.658;2023-11-19T07:30:53;4.25;;;1.40;;
42726;SDS011;28372;56.832;60.658;2023-11-19T07:33:23;4.72;;;1.40;;
42726;SDS011;28372;56.832;60.658;2023-11-19T07:35:51;3.55;;;1.27;;
42726;SDS011;28372;56.832;60.658;2023-11-19T07:38:18;3.42;;;1.40;;
42726;SDS011;28372;56.832;60.658;2023-11-19T07:40:46;4.55;;;1.38;;
42726;SDS011;28372;56.832;60.658;2023-11-19T07:43:17;2.58;;;1.30;;
42726;SDS011;28372;56.832;60.658;2023-11-19T07:45:45;4.90;;;1.40;;
42726;SDS011;28372;56.832;60.658;2023-11-19T07:48:13;3.10;;;1.40;;
42726;SDS011;28372;56.832;60.658;2023-11-19T07:50:42;5.47;;;1.48;;
42726;SDS011;28372;56.832;60.658;2023-11-19T07:53:10;3.20;;;1.30;;
42726;SDS011;28372;56.832;60.658;2023-11-19T07:55:39;2.72;;;1.10;;
42726;SDS011;28372;56.832;60.658;2023-11-19T07:58:10;3.67;;;1.20;;
42726;SDS011;28372;56.832;60.658;2023-11-19T08:00:45;4.38;;;1.30;;
42726;SDS011;28372;56.832;60.658;2023-11-19T08:03:33;3.47;;;1.42;;
42726;SDS011;28372;56.832;60.658;2023-11-19T08:06:03;3.47;;;1.30;;
42726;SDS011;28372;56.832;60.658;2023-11-19T08:08:31;2.60;;;1.25;;
42726;SDS011;28372;56.832;60.658;2023-11-19T08:11:04;3.53;;;1.27;;
42726;SDS011;28372;56.832;60.658;2023-11-19T08:13:35;3.45;;;1.05;;
42726;SDS011;28372;56.832;60.658;2023-11-19T08:16:06;4.65;;;1.20;;
42726;SDS011;28372;56.832;60.658;2023-11-19T08:18:36;6.32;;;1.50;;
42726;SDS011;28372;56.832;60.658;2023-11-19T08:21:04;6.90;;;1.42;;
42726;SDS011;28372;56.832;60.658;2023-11-19T08:23:32;5.28;;;1.45;;
42726;SDS011;28372;56.832;60.658;2023-11-19T08:26:00;7.00;;;1.60;;
42726;SDS011;28372;56.832;60.658;2023-11-19T08:28:27;4.22;;;1.45;;
42726;SDS011;28372;56.832;60.658;2023-11-19T08:30:55;4.63;;;2.00;;
42726;SDS011;28372;56.832;60.658;2023-11-19T08:33:22;6.05;;;1.52;;
42726;SDS011;28372;56.832;60.658;2023-11-19T08:35:50;4.35;;;1.55;;
42726;SDS011;28372;56.832;60.658;2023-11-19T08:38:18;6.10;;;1.30;;
42726;SDS011;28372;56.832;60.658;2023-11-19T08:40:49;3.72;;;1.45;;
42726;SDS011;28372;56.832;60.658;2023-11-19T08:43:24;3.03;;;1.27;;
42726;SDS011;28372;56.832;60.658;2023-11-19T08:46:29;4.30;;;1.10;;
42726;SDS011;28372;56.832;60.658;2023-11-19T08:48:57;4.18;;;1.30;;
42726;SDS011;28372;56.832;60.658;2023-11-19T08:51:25;3.75;;;1.30;;
42726;SDS011;28372;56.832;60.658;2023-11-19T08:53:53;4.55;;;1.52;;
42726;SDS011;28372;56.832;60.658;2023-11-19T08:56:21;1.92;;;1.10;;
42726;SDS011;28372;56.832;60.658;2023-11-19T08:58:48;3.63;;;1.20;;
42726;SDS011;28372;56.832;60.658;2023-11-19T09:01:16;4.13;;;1.40;;
42726;SDS011;28372;56.832;60.658;2023-11-19T09:03:44;4.85;;;1.70;;
42726;SDS011;28372;56.832;60.658;2023-11-19T09:06:11;4.05;;;1.35;;
42726;SDS011;28372;56.832;60.658;2023-11-19T09:08:39;7.28;;;1.33;;
42726;SDS011;28372;56.832;60.658;2023-11-19T09:11:07;5.07;;;1.10;;
42726;SDS011;28372;56.832;60.658;2023-11-19T09:13:36;4.53;;;1.20;;
42726;SDS011;28372;56.832;60.658;2023-11-19T09:16:03;6.53;;;1.30;;
42726;SDS011;28372;56.832;60.658;2023-11-19T09:18:32;4.90;;;1.30;;
42726;SDS011;28372;56.832;60.658;2023-11-19T09:21:00;2.20;;;1.20;;
42726;SDS011;28372;56.832;60.658;2023-11-19T09:23:27;4.35;;;1.30;;
42726;SDS011;28372;56.832;60.658;2023-11-19T09:25:57;3.28;;;1.20;;
42726;SDS011;28372;56.832;60.658;2023-11-19T09:28:25;3.30;;;1.20;;
42726;SDS011;28372;56.832;60.658;2023-11-19T09:30:53;3.13;;;1.20;;
42726;SDS011;28372;56.832;60.658;2023-11-19T09:33:21;6.57;;;1.30;;
42726;SDS011;28372;56.832;60.658;2023-11-19T09:38:46;4.50;;;1.75;;
42726;SDS011;28372;56.832;60.658;2023-11-19T09:41:13;5.97;;;1.40;;
42726;SDS011;28372;56.832;60.658;2023-11-19T09:43:41;4.55;;;1.40;;
42726;SDS011;28372;56.832;60.658;2023-11-19T09:46:10;3.20;;;1.30;;
42726;SDS011;28372;56.832;60.658;2023-11-19T09:48:39;12.07;;;2.60;;
42726;SDS011;28372;56.832;60.658;2023-11-19T09:51:07;5.28;;;1.20;;
42726;SDS011;28372;56.832;60.658;2023-11-19T09:53:39;8.93;;;1.77;;
42726;SDS011;28372;56.832;60.658;2023-11-19T09:56:07;11.40;;;2.15;;
42726;SDS011;28372;56.832;60.658;2023-11-19T09:58:38;9.52;;;1.75;;
42726;SDS011;28372;56.832;60.658;2023-11-19T10:01:07;6.32;;;1.85;;
42726;SDS011;28372;56.832;60.658;2023-11-19T10:03:40;6.22;;;1.33;;
42726;SDS011;28372;56.832;60.658;2023-11-19T10:06:14;5.50;;;1.65;;
42726;SDS011;28372;56.832;60.658;2023-11-19T10:08:43;2.42;;;1.17;;
42726;SDS011;28372;56.832;60.658;2023-11-19T10:11:15;2.75;;;1.20;;
42726;SDS011;28372;56.832;60.658;2023-11-19T10:13:43;2.35;;;1.00;;
42726;SDS011;28372;56.832;60.658;2023-11-19T10:16:12;3.40;;;1.15;;
42726;SDS011;28372;56.832;60.658;2023-11-19T10:18:46;2.40;;;1.02;;
42726;SDS011;28372;56.832;60.658;2023-11-19T10:21:15;4.32;;;1.10;;
42726;SDS011;28372;56.832;60.658;2023-11-19T10:23:52;4.88;;;1.40;;
42726;SDS011;28372;56.832;60.658;2023-11-19T10:26:26;8.75;;;1.80;;
42726;SDS011;28372;56.832;60.658;2023-11-19T10:28:55;10.02;;;1.85;;
42726;SDS011;28372;56.832;60.658;2023-11-19T10:31:23;8.70;;;1.80;;
42726;SDS011;28372;56.832;60.658;2023-11-19T10:33:52;4.43;;;1.50;;
42726;SDS011;28372;56.832;60.658;2023-11-19T10:36:21;3.78;;;1.30;;
42726;SDS011;28372;56.832;60.658;2023-11-19T10:38:52;5.20;;;1.40;;
42726;SDS011;28372;56.832;60.658;2023-11-19T10:41:28;6.18;;;1.30;;
42726;SDS011;28372;56.832;60.658;2023-11-19T10:43:56;4.53;;;1.60;;
42726;SDS011;28372;56.832;60.658;2023-11-19T10:46:40;3.72;;;1.20;;
42726;SDS011;28372;56.832;60.658;2023-11-19T10:49:09;8.52;;;1.77;;
42726;SDS011;28372;56.832;60.658;2023-11-19T10:51:40;3.60;;;1.23;;
42726;SDS011;28372;56.832;60.658;2023-11-19T10:54:15;3.33;;;1.60;;
42726;SDS011;28372;56.832;60.658;2023-11-19T10:56:47;5.03;;;1.80;;
42726;SDS011;28372;56.832;60.658;2023-11-19T10:59:24;3.97;;;1.30;;
42726;SDS011;28372;56.832;60.658;2023-11-19T11:02:00;4.00;;;1.60;;
42726;SDS011;28372;56.832;60.658;2023-11-19T11:04:35;4.10;;;1.42;;
42726;SDS011;28372;56.832;60.658;2023-11-19T11:07:09;9.30;;;1.70;;
42726;SDS011;28372;56.832;60.658;2023-11-19T11:09:37;6.68;;;1.52;;
42726;SDS011;28372;56.832;60.658;2023-11-19T11:12:06;5.28;;;1.45;;
42726;SDS011;28372;56.832;60.658;2023-11-19T11:14:37;3.13;;;1.20;;
42726;SDS011;28372;56.832;60.658;2023-11-19T11:17:07;3.15;;;1.13;;
42726;SDS011;28372;56.832;60.658;2023-11-19T11:19:39;6.13;;;1.30;;
42726;SDS011;28372;56.832;60.658;2023-11-19T11:22:10;3.30;;;1.45;;
42726;SDS011;28372;56.832;60.658;2023-11-19T11:27:58;5.93;;;1.33;;
42726;SDS011;28372;56.832;60.658;2023-11-19T11:36:28;4.63;;;1.23;;
42726;SDS011;28372;56.832;60.658;2023-11-19T11:39:01;8.25;;;1.20;;
42726;SDS011;28372;56.832;60.658;2023-11-19T11:44:59;3.47;;;1.10;;
42726;SDS011;28372;56.832;60.658;2023-11-19T11:48:19;6.65;;;1.38;;
42726;SDS011;28372;56.832;60.658;2023-11-19T11:50:23;1.88;;;0.90;;
42726;SDS011;28372;56.832;60.658;2023-11-19T11:57:56;2.95;;;1.23;;
42726;SDS011;28372;56.832;60.658;2023-11-19T12:00:27;3.17;;;0.93;;
42726;SDS011;28372;56.832;60.658;2023-11-19T12:03:00;3.80;;;1.02;;
42726;SDS011;28372;56.832;60.658;2023-11-19T12:05:29;5.95;;;1.00;;
42726;SDS011;28372;56.832;60.658;2023-11-19T12:07:59;5.72;;;1.75;;
42726;SDS011;28372;56.832;60.658;2023-11-19T12:10:29;3.95;;;1.10;;
42726;SDS011;28372;56.832;60.658;2023-11-19T12:13:00;5.88;;;1.30;;
42726;SDS011;28372;56.832;60.658;2023-11-19T12:18:30;5.05;;;1.33;;
42726;SDS011;28372;56.832;60.658;2023-11-19T12:20:59;5.10;;;1.05;;
42726;SDS011;28372;56.832;60.658;2023-11-19T12:23:31;4.28;;;1.00;;
42726;SDS011;28372;56.832;60.658;2023-11-19T12:25:59;3.00;;;1.08;;
42726;SDS011;28372;56.832;60.658;2023-11-19T12:28:27;2.95;;;1.20;;
42726;SDS011;28372;56.832;60.658;2023-11-19T12:31:06;3.45;;;1.00;;
42726;SDS011;28372;56.832;60.658;2023-11-19T12:33:36;5.25;;;1.20;;
42726;SDS011;28372;56.832;60.658;2023-11-19T12:36:05;2.78;;;1.10;;
42726;SDS011;28372;56.832;60.658;2023-11-19T12:38:34;5.80;;;1.13;;
42726;SDS011;28372;56.832;60.658;2023-11-19T12:41:06;4.45;;;1.33;;
42726;SDS011;28372;56.832;60.658;2023-11-19T12:43:35;2.30;;;0.90;;
42726;SDS011;28372;56.832;60.658;2023-11-19T12:46:17;2.40;;;1.13;;
42726;SDS011;28372;56.832;60.658;2023-11-19T12:48:47;3.33;;;1.20;;
42726;SDS011;28372;56.832;60.658;2023-11-19T12:51:16;7.35;;;1.35;;
42726;SDS011;28372;56.832;60.658;2023-11-19T12:53:48;2.95;;;1.20;;
42726;SDS011;28372;56.832;60.658;2023-11-19T12:56:21;3.50;;;1.10;;
42726;SDS011;28372;56.832;60.658;2023-11-19T12:58:50;3.25;;;1.30;;
42726;SDS011;28372;56.832;60.658;2023-11-19T13:01:18;4.82;;;1.33;;
42726;SDS011;28372;56.832;60.658;2023-11-19T13:03:47;4.57;;;1.17;;
42726;SDS011;28372;56.832;60.658;2023-11-19T13:06:19;4.18;;;1.30;;
42726;SDS011;28372;56.832;60.658;2023-11-19T13:08:51;4.40;;;1.15;;
42726;SDS011;28372;56.832;60.658;2023-11-19T13:11:32;5.55;;;1.17;;
42726;SDS011;28372;56.832;60.658;2023-11-19T13:14:04;2.30;;;1.20;;
42726;SDS011;28372;56.832;60.658;2023-11-19T13:16:36;1.85;;;1.00;;
42726;SDS011;28372;56.832;60.658;2023-11-19T13:19:06;4.38;;;1.65;;
42726;SDS011;28372;56.832;60.658;2023-11-19T13:21:34;4.10;;;1.40;;
42726;SDS011;28372;56.832;60.658;2023-11-19T13:24:03;3.35;;;1.35;;
42726;SDS011;28372;56.832;60.658;2023-11-19T13:26:31;4.03;;;1.58;;
42726;SDS011;28372;56.832;60.658;2023-11-19T13:28:58;3.05;;;1.38;;
42726;SDS011;28372;56.832;60.658;2023-11-19T13:31:28;3.53;;;1.30;;
42726;SDS011;28372;56.832;60.658;2023-11-19T13:33:57;5.57;;;1.48;;
42726;SDS011;28372;56.832;60.658;2023-11-19T13:36:28;3.50;;;1.48;;
42726;SDS011;28372;56.832;60.658;2023-11-19T13:38:57;4.60;;;1.38;;
42726;SDS011;28372;56.832;60.658;2023-11-19T13:41:27;3.50;;;1.30;;
42726;SDS011;28372;56.832;60.658;2023-11-19T13:43:55;3.58;;;1.52;;
42726;SDS011;28372;56.832;60.658;2023-11-19T13:46:23;5.15;;;1.80;;
42726;SDS011;28372;56.832;60.658;2023-11-19T13:49:36;4.15;;;1.50;;
42726;SDS011;28372;56.832;60.658;2023-11-19T13:51:48;4.10;;;1.60;;
42726;SDS011;28372;56.832;60.658;2023-11-19T13:54:15;6.63;;;2.00;;
42726;SDS011;28372;56.832;60.658;2023-11-19T13:56:43;6.93;;;2.03;;
42726;SDS011;28372;56.832;60.658;2023-11-19T13:59:13;6.57;;;1.65;;
42726;SDS011;28372;56.832;60.658;2023-11-19T14:01:40;8.35;;;1.92;;
42726;SDS011;28372;56.832;60.658;2023-11-19T14:04:09;4.28;;;1.80;;
42726;SDS011;28372;56.832;60.658;2023-11-19T14:06:38;6.90;;;1.70;;
42726;SDS011;28372;56.832;60.658;2023-11-19T14:09:08;5.97;;;1.65;;
42726;SDS011;28372;56.832;60.658;2023-11-19T14:11:38;4.65;;;2.13;;
42726;SDS011;28372;56.832;60.658;2023-11-19T14:14:06;4.38;;;1.67;;
42726;SDS011;28372;56.832;60.658;2023-11-19T14:16:33;4.07;;;1.60;;
42726;SDS011;28372;56.832;60.658;2023-11-19T14:19:02;4.60;;;1.88;;
42726;SDS011;28372;56.832;60.658;2023-11-19T14:21:30;6.40;;;1.65;;
42726;SDS011;28372;56.832;60.658;2023-11-19T14:23:58;5.53;;;2.00;;
42726;SDS011;28372;56.832;60.658;2023-11-19T14:26:26;5.75;;;2.20;;
42726;SDS011;28372;56.832;60.658;2023-11-19T14:28:54;6.03;;;2.13;;
42726;SDS011;28372;56.832;60.658;2023-11-19T14:31:22;7.53;;;2.65;;
42726;SDS011;28372;56.832;60.658;2023-11-19T14:33:52;4.15;;;2.00;;
42726;SDS011;28372;56.832;60.658;2023-11-19T14:36:23;5.07;;;1.80;;
42726;SDS011;28372;56.832;60.658;2023-11-19T14:38:50;6.30;;;1.80;;
42726;SDS011;28372;56.832;60.658;2023-11-19T14:41:18;6.03;;;2.25;;
42726;SDS011;28372;56.832;60.658;2023-11-19T14:43:46;7.43;;;2.97;;
42726;SDS011;28372;56.832;60.658;2023-11-19T14:46:15;6.07;;;1.40;;
42726;SDS011;28372;56.832;60.658;2023-11-19T14:48:42;5.55;;;1.70;;
42726;SDS011;28372;56.832;60.658;2023-11-19T14:51:10;4.60;;;1.70;;
42726;SDS011;28372;56.832;60.658;2023-11-19T14:53:38;5.32;;;1.92;;
42726;SDS011;28372;56.832;60.658;2023-11-19T14:56:09;4.60;;;1.83;;
42726;SDS011;28372;56.832;60.658;2023-11-19T14:58:37;6.43;;;1.90;;
42726;SDS011;28372;56.832;60.658;2023-11-19T15:01:06;3.72;;;1.80;;
42726;SDS011;28372;56.832;60.658;2023-11-19T15:03:38;4.20;;;1.70;;
42726;SDS011;28372;56.832;60.658;2023-11-19T15:06:09;7.40;;;1.80;;
42726;SDS011;28372;56.832;60.658;2023-11-19T15:08:39;4.55;;;1.70;;
42726;SDS011;28372;56.832;60.658;2023-11-19T15:11:07;5.13;;;2.00;;
42726;SDS011;28372;56.832;60.658;2023-11-19T15:13:36;4.47;;;1.80;;
42726;SDS011;28372;56.832;60.658;2023-11-19T15:16:05;3.33;;;1.40;;